Nearby METAR Reports

 

EGTE - Exeter Airport, United Kingdom
Distance from station: S 19km
Updated: 12/12/2018 08:50
Mostly cloudy
Mostly cloudy
 Wind from SE
Wind: SE 19 km/h
Temperature: 9°C
Wind Chill: 6°C
Dew Point: 8°C
Humidity: 94%
Barometer: 1018 hPa
Clouds: Mostly cloudy
Visibility: 9 km
Cloud details: Partly cloudy 457 m
Mostly cloudy 853 m
2018/12/12 08:50 EGTE 120850Z 14010KT 9000 SCT015 BKN028 09/08 Q1018
EGDY - Yeovilton (navy), United Kingdom
Distance from station: ENE 55km
Updated: 12/12/2018 08:50
Partly cloudy
Partly cloudy
 Wind from ESE
Wind: ESE 15 km/h
Temperature: 7°C
Wind Chill: 4°C
Dew Point: 5°C
Humidity: 87%
Barometer: 1019 hPa
Clouds: Partly cloudy
Visibility: 10 km
Cloud details: Few Clouds 549 m
Partly cloudy 914 m
2018/12/12 08:50 EGDY 120850Z 11008KT 9999 FEW018 SCT030 07/05 Q1019 BLU TEMPO SCT022 WHT
 
EGFF - Cardiff-Wales Ar, United Kingdom
Distance from station: N 56km
Updated: 12/12/2018 08:50
Overcast
Overcast
 Wind from ESE
Wind: ESE 24 km/h
Temperature: 8°C
Wind Chill: 4°C
Dew Point: 7°C
Humidity: 93%
Barometer: 1019 hPa
Clouds: Overcast
Visibility: 10 km
Cloud details: Mostly cloudy 396 m
Overcast 1189 m
2018/12/12 08:50 EGFF 120850Z AUTO 12013KT 9999 BKN013 OVC039 08/07 Q1019
EGDX - St Athan Raf, United Kingdom
Distance from station: N 58km
Updated: 12/12/2018 08:50
Light drizzle, Mostly cloudy
Light drizzle, Mostly cloudy
 Wind from ESE
Wind: ESE 22 km/h
Temperature: 8°C
Wind Chill: 4°C
Dew Point: 6°C
Humidity: 87%
Barometer: 1018 hPa
Summary: Light Drizzle
Clouds: Mostly cloudy
Visibility: 7 km
Cloud details: Partly cloudy 305 m
Mostly cloudy 518 m
Mostly cloudy 792 m
2018/12/12 08:50 EGDX 120850Z 11012KT 7000 -DZ SCT010 BKN017 BKN026 08/06 Q1018 GRN
 
EGGD - Bristol/Lulsgate, United Kingdom
Distance from station: NE 71km
Updated: 12/12/2018 08:50
Few Clouds
Few Clouds
 Wind from E
Wind: E 13 km/h
Temperature: 5°C
Wind Chill: 2°C
Dew Point: 5°C
Humidity: 100%
Barometer: 1019 hPa
Clouds: Few Clouds
Visibility: 10 km
Cloud details: Few Clouds 945 m
2018/12/12 08:50 EGGD 120850Z AUTO 10007KT 9999 FEW031 05/05 Q1019